createdAt,value
2023-05-21T00:00:39.747Z,11.8271
2023-05-21T00:01:42.453Z,11.7730
2023-05-21T00:02:44.924Z,11.7519
2023-05-21T00:03:46.911Z,11.7160
2023-05-21T00:04:48.698Z,11.5960
2023-05-21T00:06:51.869Z,11.6982
2023-05-21T00:07:53.534Z,11.7429
2023-05-21T00:08:55.210Z,11.7657
2023-05-21T00:09:57.520Z,11.7277
2023-05-21T00:10:59.845Z,11.7293
2023-05-21T00:12:02.217Z,11.7131
2023-05-21T00:13:04.735Z,11.6748
2023-05-21T00:14:06.405Z,11.7177
2023-05-21T00:15:08.290Z,11.7064
2023-05-21T00:16:10.164Z,11.7086
2023-05-21T00:17:12.418Z,11.6505
2023-05-21T00:18:14.760Z,11.7305
2023-05-21T00:19:17.957Z,11.9063
2023-05-21T00:26:29.185Z,11.9033
2023-05-21T00:27:31.702Z,11.8910
2023-05-21T00:28:33.355Z,11.7566
2023-05-21T00:29:35.010Z,11.7307
2023-05-21T00:30:37.829Z,11.8218
2023-05-21T00:31:39.532Z,11.8954
2023-05-21T00:32:41.240Z,11.8072
2023-05-21T00:33:44.009Z,11.7674
2023-05-21T00:35:44.367Z,11.8057
2023-05-21T00:36:46.019Z,12.0975
2023-05-21T00:37:47.688Z,12.1887
2023-05-21T00:38:51.037Z,12.2224
2023-05-21T00:40:52.763Z,12.2387
2023-05-21T00:41:54.847Z,12.0034
2023-05-21T00:43:58.322Z,11.9727
2023-05-21T00:45:00.008Z,11.7945
2023-05-21T00:48:04.620Z,11.7822
2023-05-21T00:49:06.301Z,11.7410
2023-05-21T00:50:07.953Z,11.7235
2023-05-21T00:51:09.591Z,11.7803
2023-05-21T00:52:10.164Z,11.8531
2023-05-21T00:53:11.807Z,11.9300
2023-05-21T00:54:14.546Z,11.9996
2023-05-21T00:55:16.203Z,12.0489
2023-05-21T00:56:17.849Z,12.1589
2023-05-21T00:57:19.518Z,11.9189
2023-05-21T00:58:21.154Z,11.8985
2023-05-21T00:59:22.833Z,12.0102
2023-05-21T01:00:24.506Z,12.0515
2023-05-21T01:01:26.182Z,12.1237
2023-05-21T01:02:27.823Z,12.2241
2023-05-21T01:03:29.611Z,12.3124
2023-05-21T01:04:31.302Z,12.3348
2023-05-21T01:05:33.089Z,12.3573
2023-05-21T01:06:34.837Z,12.3860
2023-05-21T01:07:36.510Z,12.3622
2023-05-21T01:08:38.193Z,12.3417
2023-05-21T01:10:41.318Z,12.3822
2023-05-21T01:11:44.157Z,12.3310
2023-05-21T01:20:57.144Z,12.2157
2023-05-21T01:21:59.485Z,12.2186
2023-05-21T01:23:01.787Z,12.1636
2023-05-21T01:24:04.210Z,12.1430
2023-05-21T01:25:05.952Z,12.1356
2023-05-21T01:26:08.278Z,12.1165
2023-05-21T01:27:10.676Z,12.0901
2023-05-21T01:28:12.955Z,12.1370
2023-05-21T01:29:14.646Z,12.1720
2023-05-21T01:30:16.263Z,12.0874
2023-05-21T01:31:18.597Z,12.0930
2023-05-21T01:32:20.219Z,12.1802
2023-05-21T01:34:23.408Z,12.1108
2023-05-21T01:35:25.152Z,12.1169
2023-05-21T01:36:26.850Z,12.1323
2023-05-21T01:37:29.131Z,12.1401
2023-05-21T01:38:31.438Z,12.1089
2023-05-21T01:39:33.741Z,12.0619
2023-05-21T01:40:36.040Z,12.0335
2023-05-21T01:41:37.674Z,12.0359
2023-05-21T01:42:40.266Z,12.0197
2023-05-21T01:43:42.647Z,11.9622
2023-05-21T01:44:45.262Z,12.0664
2023-05-21T01:45:47.704Z,12.0820
2023-05-21T01:46:49.390Z,12.0659
2023-05-21T01:47:51.888Z,12.0728
2023-05-21T01:48:53.517Z,12.0181
2023-05-21T01:49:56.053Z,12.0303
2023-05-21T01:50:58.448Z,12.0182
2023-05-21T01:52:00.777Z,12.0218
2023-05-21T01:53:03.199Z,11.9593
2023-05-21T01:54:05.190Z,11.9703
2023-05-21T01:55:07.575Z,12.0065
2023-05-21T01:56:09.204Z,12.0143
2023-05-21T01:57:11.162Z,11.9899
2023-05-21T01:59:14.335Z,11.9939
2023-05-21T02:00:15.996Z,11.9862
2023-05-21T02:01:17.762Z,11.9285
2023-05-21T02:02:20.158Z,11.9784
2023-05-21T02:03:22.748Z,11.9648
2023-05-21T02:04:25.089Z,11.9391
2023-05-21T02:05:27.065Z,11.9125
2023-05-21T02:07:30.903Z,11.8604
2023-05-21T02:08:32.555Z,11.9122
2023-05-21T02:09:34.251Z,11.8304
2023-05-21T02:11:38.223Z,11.9300
2023-05-21T02:12:40.933Z,12.0103
2023-05-21T02:13:42.577Z,11.9261
2023-05-21T02:14:44.825Z,11.9306
2023-05-21T02:15:47.086Z,11.8921
2023-05-21T02:16:49.448Z,11.9160
2023-05-21T02:17:51.194Z,11.8370
2023-05-21T02:18:52.852Z,11.9500
2023-05-21T02:19:54.470Z,11.7815
2023-05-21T02:20:56.117Z,11.7254
2023-05-21T02:21:57.816Z,11.7801
2023-05-21T02:22:59.421Z,11.7868
2023-05-21T02:24:02.399Z,11.7640
2023-05-21T02:25:07.226Z,11.9664
2023-05-21T02:32:13.077Z,11.7256
2023-05-21T02:33:14.779Z,11.6461
2023-05-21T02:34:16.451Z,11.8813
2023-05-21T02:35:18.097Z,11.8205
2023-05-21T02:36:19.768Z,11.9512
2023-05-21T02:37:21.454Z,11.9587
2023-05-21T02:38:23.240Z,11.8857
2023-05-21T02:39:24.940Z,11.8792
2023-05-21T02:40:26.589Z,11.8974
2023-05-21T02:41:28.241Z,12.0227
2023-05-21T02:42:30.532Z,11.8655
2023-05-21T02:43:32.874Z,11.8592
2023-05-21T02:44:34.551Z,11.8644
2023-05-21T02:45:36.456Z,11.8587
2023-05-21T02:46:38.830Z,11.6814
2023-05-21T02:47:41.448Z,11.6388
2023-05-21T02:48:43.848Z,11.8597
2023-05-21T02:49:46.573Z,11.9633
2023-05-21T02:50:48.194Z,11.9079
2023-05-21T02:51:49.859Z,11.5523
2023-05-21T02:52:51.519Z,11.4435
2023-05-21T02:53:53.440Z,11.6355
2023-05-21T02:54:55.101Z,11.5242
2023-05-21T02:56:59.738Z,11.6109
2023-05-21T03:03:06.843Z,11.7385
2023-05-21T03:04:09.083Z,11.8415
2023-05-21T03:05:10.717Z,11.8194
2023-05-21T03:06:12.367Z,11.6362
2023-05-21T03:08:16.162Z,11.6964
2023-05-21T03:09:17.867Z,11.7966
2023-05-21T03:10:19.553Z,11.8007
2023-05-21T03:12:23.970Z,11.6316
2023-05-21T03:13:25.635Z,11.7059
2023-05-21T03:14:27.309Z,11.6474
2023-05-21T03:15:28.952Z,11.6830
2023-05-21T03:16:30.606Z,11.7458
2023-05-21T03:18:34.697Z,11.6116
2023-05-21T03:21:39.409Z,11.4179
2023-05-21T03:22:42.406Z,11.3333
2023-05-21T03:25:45.051Z,10.8776
2023-05-21T03:26:47.388Z,10.9245
2023-05-21T03:27:49.752Z,10.9979
2023-05-21T03:28:51.403Z,10.9291
2023-05-21T03:29:53.102Z,10.8328
2023-05-21T03:30:54.897Z,10.8083
2023-05-21T03:31:56.714Z,10.8095
2023-05-21T03:32:58.457Z,10.7349
2023-05-21T03:34:00.697Z,10.6597
2023-05-21T03:35:02.389Z,10.5193
2023-05-21T03:36:04.082Z,10.3270
2023-05-21T03:38:07.331Z,10.4548
2023-05-21T03:39:09.061Z,10.2430
2023-05-21T03:40:10.763Z,10.4812
2023-05-21T03:41:12.467Z,10.6285
2023-05-21T03:43:15.698Z,11.1831
2023-05-21T03:44:17.421Z,11.2405
2023-05-21T03:45:20.243Z,11.1512
2023-05-21T03:55:35.691Z,11.2706
2023-05-21T03:56:37.475Z,11.1342
2023-05-21T03:57:39.147Z,10.8161
2023-05-21T03:58:40.860Z,10.5887
2023-05-21T03:59:42.510Z,10.4773
2023-05-21T04:00:44.198Z,10.9905
2023-05-21T04:01:45.890Z,11.0657
2023-05-21T04:02:47.688Z,11.3246
2023-05-21T04:03:50.214Z,11.2161
2023-05-21T04:04:52.220Z,11.3297
2023-05-21T04:05:53.910Z,11.4533
2023-05-21T04:06:55.565Z,11.3102
2023-05-21T04:07:57.838Z,11.2976
2023-05-21T04:09:00.359Z,11.0371
2023-05-21T04:10:03.175Z,11.1227
2023-05-21T04:11:04.873Z,11.1123
2023-05-21T04:12:06.574Z,11.1670
2023-05-21T04:13:08.260Z,11.3778
2023-05-21T04:15:11.795Z,11.5174
2023-05-21T04:16:13.550Z,11.5368
2023-05-21T04:18:16.797Z,11.5770
2023-05-21T04:19:18.609Z,11.5237
2023-05-21T04:20:20.594Z,11.5701
2023-05-21T04:22:24.524Z,11.5797
2023-05-21T04:23:27.186Z,11.6015
2023-05-21T04:24:28.909Z,11.5071
2023-05-21T04:25:30.654Z,11.4484
2023-05-21T04:26:32.336Z,11.4737
2023-05-21T04:27:34.806Z,11.5252
2023-05-21T04:28:37.108Z,11.4130
2023-05-21T04:29:38.809Z,11.5262
2023-05-21T04:30:40.516Z,11.4125
2023-05-21T04:31:42.964Z,11.4846
2023-05-21T04:32:44.757Z,11.4196
2023-05-21T04:33:46.420Z,11.5760
2023-05-21T04:34:48.128Z,11.6908
2023-05-21T04:35:50.899Z,11.5578
2023-05-21T04:44:03.968Z,11.5608
2023-05-21T04:45:06.360Z,11.6957
2023-05-21T04:46:08.034Z,11.8350
2023-05-21T04:47:09.784Z,11.8711
2023-05-21T04:48:12.323Z,11.8330
2023-05-21T04:49:14.054Z,11.9690
2023-05-21T04:50:15.706Z,12.0104
2023-05-21T04:51:18.060Z,12.0505
2023-05-21T04:52:19.759Z,12.0681
2023-05-21T04:53:21.461Z,12.0800
2023-05-21T04:54:23.170Z,12.0268
2023-05-21T04:55:25.665Z,12.0235
2023-05-21T04:56:28.031Z,12.0491
2023-05-21T04:57:29.730Z,12.0159
2023-05-21T04:58:31.446Z,12.0999
2023-05-21T04:59:33.759Z,12.1346
2023-05-21T05:00:36.082Z,12.2203
2023-05-21T05:01:37.775Z,12.2567
2023-05-21T05:03:41.759Z,12.2983
2023-05-21T05:04:44.135Z,12.3095
2023-05-21T05:05:45.843Z,12.3906
2023-05-21T05:06:47.543Z,12.4088
2023-05-21T05:07:49.519Z,12.4652
2023-05-21T05:08:51.246Z,12.4601
2023-05-21T05:09:52.951Z,12.5445
2023-05-21T05:11:56.823Z,12.6491
2023-05-21T05:12:58.994Z,12.7690
2023-05-21T05:14:00.696Z,12.8080
2023-05-21T05:15:02.774Z,12.6471
2023-05-21T05:16:04.603Z,12.4967
2023-05-21T05:17:06.318Z,12.4497
2023-05-21T05:20:11.866Z,12.5996
2023-05-21T05:21:14.350Z,12.6800
2023-05-21T05:22:16.654Z,12.8015
2023-05-21T05:24:20.651Z,12.8960
2023-05-21T05:25:22.352Z,12.8036
2023-05-21T05:26:24.059Z,12.8154
2023-05-21T05:28:27.971Z,12.7982
2023-05-21T05:29:30.274Z,12.8879
2023-05-21T05:30:32.002Z,12.8853
2023-05-21T05:33:37.846Z,13.2514
2023-05-21T05:34:40.211Z,13.2680
2023-05-21T05:35:42.566Z,13.3194
2023-05-21T05:36:45.007Z,13.3821
2023-05-21T05:37:46.741Z,13.5555
2023-05-21T05:39:50.630Z,13.6618
2023-05-21T05:40:52.987Z,13.6523
2023-05-21T05:41:54.860Z,13.7062
2023-05-21T05:42:56.783Z,13.6284
2023-05-21T05:43:58.542Z,13.5894
2023-05-21T05:45:01.655Z,13.4558
2023-05-21T05:46:00.645Z,13.4816
2023-05-21T05:47:02.581Z,13.4738
2023-05-21T05:48:05.624Z,13.2758
2023-05-21T05:49:07.988Z,13.3429
2023-05-21T05:50:09.731Z,13.5476
2023-05-21T05:51:12.110Z,13.5387
2023-05-21T05:52:14.535Z,13.7665
2023-05-21T05:53:16.285Z,13.9959
2023-05-21T05:55:20.519Z,14.0526
2023-05-21T05:56:23.101Z,13.9532
2023-05-21T05:57:26.039Z,13.7862
2023-05-21T06:04:37.275Z,14.4844
2023-05-21T06:05:39.937Z,14.5014
2023-05-21T06:07:41.571Z,14.1433
2023-05-21T06:08:43.441Z,13.9860
2023-05-21T06:09:45.857Z,13.8849
2023-05-21T06:10:48.411Z,13.8057
2023-05-21T06:11:51.052Z,13.6831
2023-05-21T06:12:53.453Z,13.9072
2023-05-21T06:13:55.192Z,14.0100
2023-05-21T06:14:56.917Z,14.0992
2023-05-21T06:15:59.310Z,14.2959
2023-05-21T06:17:00.997Z,14.1003
2023-05-21T06:20:05.052Z,14.1092
2023-05-21T06:21:07.589Z,14.1683
2023-05-21T06:22:10.019Z,14.5046
2023-05-21T06:23:11.754Z,14.3765
2023-05-21T06:24:14.105Z,14.6311
2023-05-21T06:25:14.289Z,14.9942
2023-05-21T06:32:24.803Z,15.4701
2023-05-21T06:33:27.743Z,15.4081
2023-05-21T06:34:27.672Z,15.9586
2023-05-21T06:36:31.660Z,15.7080
2023-05-21T06:37:33.392Z,15.4344
2023-05-21T06:38:35.332Z,15.5230
2023-05-21T06:39:37.275Z,15.6330
2023-05-21T06:40:39.792Z,15.8090
2023-05-21T06:41:42.348Z,15.8950
2023-05-21T06:42:44.083Z,15.6619
2023-05-21T06:43:46.321Z,15.7491
2023-05-21T06:44:49.214Z,15.6142
2023-05-21T06:45:50.985Z,15.8011
2023-05-21T06:46:52.695Z,16.2035
2023-05-21T06:47:54.468Z,16.0311
2023-05-21T06:48:56.890Z,16.3155
2023-05-21T06:49:59.213Z,16.4148
2023-05-21T06:51:01.598Z,16.5255
2023-05-21T06:52:03.365Z,16.2624
2023-05-21T06:54:07.416Z,16.4128
2023-05-21T06:55:09.167Z,15.8323
2023-05-21T06:56:11.070Z,15.9250
2023-05-21T06:57:12.820Z,15.7943
2023-05-21T06:59:16.991Z,16.0292
2023-05-21T07:02:20.874Z,16.8947
2023-05-21T07:03:21.459Z,17.0748
2023-05-21T07:10:32.031Z,15.6838
2023-05-21T07:12:33.582Z,16.4388
2023-05-21T07:13:35.916Z,16.5641
2023-05-21T07:14:38.477Z,16.9129
2023-05-21T07:15:40.218Z,16.9115
2023-05-21T07:16:42.011Z,17.4235
2023-05-21T07:17:43.779Z,17.3086
2023-05-21T07:18:46.224Z,18.1089
2023-05-21T07:19:48.289Z,18.0151
2023-05-21T07:21:52.480Z,16.6987
2023-05-21T07:22:55.053Z,16.5665
2023-05-21T07:23:57.616Z,17.7076
2023-05-21T07:24:59.338Z,17.9569
2023-05-21T07:26:01.219Z,17.2330
2023-05-21T07:27:08.766Z,17.5845
2023-05-21T07:28:06.806Z,17.3038
2023-05-21T07:37:21.512Z,18.4704
2023-05-21T07:38:23.233Z,18.0815
2023-05-21T07:39:25.115Z,17.6981
2023-05-21T07:40:27.111Z,18.1385
2023-05-21T07:41:29.272Z,18.2789
2023-05-21T07:42:31.031Z,19.3056
2023-05-21T07:43:32.768Z,18.2397
2023-05-21T07:44:34.654Z,17.9955
2023-05-21T07:45:37.404Z,17.9860
2023-05-21T07:46:38.532Z,17.6085
2023-05-21T07:48:40.104Z,19.3864
2023-05-21T07:49:40.366Z,19.6615
2023-05-21T07:50:40.241Z,19.8388
2023-05-21T07:51:42.857Z,17.9865
2023-05-21T07:52:45.426Z,18.2164
2023-05-21T07:53:47.899Z,18.8196
2023-05-21T07:54:49.908Z,18.0224
2023-05-21T07:55:51.790Z,18.5586
2023-05-21T07:58:56.678Z,18.3091
2023-05-21T08:01:01.191Z,18.8581
2023-05-21T08:02:03.536Z,18.1907
2023-05-21T08:03:05.310Z,18.2503
2023-05-21T08:04:07.359Z,17.7719
2023-05-21T08:05:10.817Z,17.8242
2023-05-21T08:06:11.348Z,17.9461
2023-05-21T08:07:13.605Z,18.2465
2023-05-21T08:08:16.210Z,17.7718
2023-05-21T08:09:18.151Z,17.7371
2023-05-21T08:11:22.589Z,17.9127
2023-05-21T08:12:24.332Z,18.7173
2023-05-21T08:13:26.793Z,18.1130
2023-05-21T08:14:28.709Z,18.8676
2023-05-21T08:16:33.512Z,20.7422
2023-05-21T08:17:35.474Z,20.0433
2023-05-21T08:18:37.727Z,19.6224
2023-05-21T08:19:40.145Z,19.6968
2023-05-21T08:20:42.926Z,20.6658
2023-05-21T08:24:48.907Z,19.0586
2023-05-21T08:25:51.727Z,19.3106
2023-05-21T08:27:56.081Z,20.7845
2023-05-21T08:28:58.411Z,20.7770
2023-05-21T08:30:00.850Z,20.5251
2023-05-21T08:31:02.568Z,19.8471
2023-05-21T08:32:04.318Z,20.3665
2023-05-21T08:33:06.786Z,20.5353
2023-05-21T08:34:08.537Z,20.5582
2023-05-21T08:35:10.258Z,20.5777
2023-05-21T08:36:12.076Z,21.3569
2023-05-21T08:37:14.081Z,20.4754
2023-05-21T08:38:16.468Z,20.3730
2023-05-21T08:39:18.919Z,20.8424
2023-05-21T08:40:21.239Z,22.8464
2023-05-21T08:41:22.950Z,23.9109
2023-05-21T08:42:35.742Z,23.6220
2023-05-21T08:44:31.184Z,22.1048
2023-05-21T08:50:38.382Z,22.0643
2023-05-21T08:53:41.227Z,20.7186
2023-05-21T08:54:42.942Z,20.4512
2023-05-21T08:55:44.677Z,21.2952
2023-05-21T08:56:47.154Z,21.0955
2023-05-21T08:58:07.757Z,20.8496
2023-05-21T08:58:50.599Z,20.1578
2023-05-21T08:59:53.019Z,20.0448
2023-05-21T09:00:55.441Z,19.2668
2023-05-21T09:01:57.271Z,19.8761
2023-05-21T09:02:59.980Z,20.7776
2023-05-21T09:04:16.155Z,20.6105
2023-05-21T09:05:04.387Z,19.8074
2023-05-21T09:06:06.145Z,20.1122
2023-05-21T09:07:08.605Z,21.5461
2023-05-21T09:08:11.390Z,22.9306
2023-05-21T09:09:13.108Z,22.8577
2023-05-21T09:12:19.452Z,22.7132
2023-05-21T09:13:21.849Z,23.5845
2023-05-21T09:14:23.585Z,23.9881
2023-05-21T09:16:27.575Z,22.5231
2023-05-21T09:17:30.093Z,22.6701
2023-05-21T09:18:31.800Z,23.3722
2023-05-21T09:19:33.711Z,23.8356
2023-05-21T09:20:36.545Z,23.0570
2023-05-21T09:24:40.701Z,23.0050
2023-05-21T09:25:42.468Z,22.8234
2023-05-21T09:26:45.133Z,22.6828
2023-05-21T09:27:45.104Z,22.1411
2023-05-21T09:28:47.522Z,21.4748
2023-05-21T09:29:49.260Z,22.3776
2023-05-21T09:31:00.060Z,22.1340
2023-05-21T09:37:06.443Z,23.8090
2023-05-21T09:41:09.789Z,24.0502
2023-05-21T09:42:11.987Z,24.8256
2023-05-21T09:44:15.754Z,23.0772
2023-05-21T09:45:17.712Z,21.6129
2023-05-21T09:46:19.482Z,21.6737
2023-05-21T09:48:22.794Z,22.8779
2023-05-21T09:49:26.212Z,21.5081
2023-05-21T09:53:31.143Z,22.2406
2023-05-21T09:54:32.864Z,21.7502
2023-05-21T09:55:34.622Z,21.9493
2023-05-21T09:56:36.464Z,22.6522
2023-05-21T09:57:38.174Z,22.1630
2023-05-21T09:58:39.953Z,21.6742
2023-05-21T09:59:41.703Z,21.6208
2023-05-21T10:00:43.461Z,21.4820
2023-05-21T10:02:47.585Z,21.6850
2023-05-21T10:03:50.739Z,22.2823
2023-05-21T10:04:50.474Z,21.9795
2023-05-21T10:06:54.399Z,23.1147
2023-05-21T10:07:56.735Z,23.8799
2023-05-21T10:08:59.085Z,23.0439
2023-05-21T10:10:00.825Z,23.0515
2023-05-21T10:11:02.687Z,23.6561
2023-05-21T10:12:05.467Z,24.3290
2023-05-21T10:13:07.897Z,24.8284
2023-05-21T10:14:09.649Z,23.5895
2023-05-21T10:15:11.374Z,22.9730
2023-05-21T10:16:13.865Z,22.9970
2023-05-21T10:17:16.382Z,22.8278
2023-05-21T10:18:18.708Z,22.6048
2023-05-21T10:19:21.220Z,22.9267
2023-05-21T10:20:22.970Z,23.0411
2023-05-21T10:21:25.271Z,22.8543
2023-05-21T10:22:27.708Z,22.8651
2023-05-21T10:23:29.529Z,23.3857
2023-05-21T10:24:31.248Z,23.3695
2023-05-21T10:26:35.340Z,23.4251
2023-05-21T10:27:37.944Z,23.3125
2023-05-21T10:28:40.407Z,23.3692
2023-05-21T10:29:42.615Z,22.7657
2023-05-21T10:30:45.135Z,22.4844
2023-05-21T10:31:47.573Z,22.3915
2023-05-21T10:32:50.372Z,23.4687
2023-05-21T10:34:04.982Z,23.9384
2023-05-21T10:35:55.146Z,22.9755
2023-05-21T10:36:57.969Z,22.9732
2023-05-21T10:39:20.814Z,23.3264
2023-05-21T10:40:01.081Z,24.0614
2023-05-21T10:41:02.809Z,24.1368
2023-05-21T10:42:05.191Z,24.6774
2023-05-21T10:43:07.527Z,24.3386
2023-05-21T10:44:10.067Z,25.3221
2023-05-21T10:45:11.834Z,25.0038
2023-05-21T10:46:13.611Z,24.8109
2023-05-21T10:47:16.069Z,23.6992
2023-05-21T10:48:18.970Z,23.2058
2023-05-21T10:51:21.205Z,24.3435
2023-05-21T10:52:22.960Z,25.4758
2023-05-21T10:53:24.826Z,26.0110
2023-05-21T10:54:26.669Z,26.0215
2023-05-21T10:55:28.965Z,25.3975
2023-05-21T10:56:30.673Z,25.0912
2023-05-21T10:57:33.067Z,23.6461
2023-05-21T10:58:34.847Z,23.4557
2023-05-21T10:59:36.609Z,22.8822
2023-05-21T11:00:38.464Z,22.5400
2023-05-21T11:03:44.880Z,22.7013
2023-05-21T11:04:46.637Z,23.3543
2023-05-21T11:05:48.466Z,23.6480
2023-05-21T11:06:50.231Z,22.7069
2023-05-21T11:07:52.126Z,22.5887
2023-05-21T11:08:55.362Z,23.3530
2023-05-21T11:09:54.714Z,23.1914
2023-05-21T11:10:58.564Z,23.2462
2023-05-21T11:11:58.216Z,23.1313
2023-05-21T11:13:00.601Z,23.7346
2023-05-21T11:14:03.152Z,24.1561
2023-05-21T11:15:05.455Z,23.2430
2023-05-21T11:17:09.685Z,22.6099
2023-05-21T11:18:12.668Z,22.6239
2023-05-21T11:27:27.550Z,23.2269
2023-05-21T11:28:29.322Z,23.7456
2023-05-21T11:29:31.109Z,22.9207
2023-05-21T11:30:35.238Z,22.9604
2023-05-21T11:31:35.441Z,23.4351
2023-05-21T11:32:37.170Z,23.2907
2023-05-21T11:33:38.910Z,23.0592
2023-05-21T11:34:40.657Z,22.8842
2023-05-21T11:36:44.838Z,24.2314
2023-05-21T11:37:47.233Z,23.7101
2023-05-21T11:38:49.684Z,23.8626
2023-05-21T11:39:52.744Z,24.3808
2023-05-21T11:40:52.862Z,24.3943
2023-05-21T11:41:53.409Z,24.3048
2023-05-21T11:44:57.199Z,25.1677
2023-05-21T11:49:43.362Z,24.5304
2023-05-21T11:50:44.248Z,23.8191
2023-05-21T11:51:46.206Z,23.3040
2023-05-21T11:52:48.871Z,23.4085
2023-05-21T11:53:51.512Z,23.5959
2023-05-21T11:54:53.344Z,24.1319
2023-05-21T11:55:55.278Z,24.3767
2023-05-21T11:56:57.272Z,24.5976
2023-05-21T11:57:59.682Z,24.7802
2023-05-21T11:59:00.629Z,24.5360
2023-05-21T12:00:00.835Z,25.2748
2023-05-21T12:01:03.672Z,24.8806
2023-05-21T12:02:06.262Z,24.8500
2023-05-21T12:03:08.993Z,25.5730
2023-05-21T12:04:10.852Z,25.2460
2023-05-21T12:05:13.338Z,24.9930
2023-05-21T12:07:17.659Z,25.4324
2023-05-21T12:12:24.204Z,25.7002
2023-05-21T12:13:26.572Z,25.7445
2023-05-21T12:18:35.482Z,24.5246
2023-05-21T12:20:37.316Z,24.6609
2023-05-21T12:22:38.493Z,25.8722
2023-05-21T12:25:44.153Z,24.8721
2023-05-21T12:26:46.156Z,24.8085
2023-05-21T12:27:48.106Z,25.4058
2023-05-21T12:28:48.186Z,25.0130
2023-05-21T12:29:50.016Z,24.7284
2023-05-21T12:30:52.304Z,25.0013
2023-05-21T12:31:54.265Z,25.4555
2023-05-21T12:32:57.203Z,26.2962
2023-05-21T12:33:59.598Z,26.0911
2023-05-21T12:35:02.232Z,26.4531
2023-05-21T12:36:04.762Z,26.0753
2023-05-21T12:37:07.171Z,25.1555
2023-05-21T12:43:15.219Z,23.8644
2023-05-21T12:44:17.231Z,24.0480
2023-05-21T12:45:19.242Z,24.5604
2023-05-21T12:46:21.763Z,24.6946
2023-05-21T12:47:24.368Z,25.0276
2023-05-21T12:48:26.946Z,25.2458
2023-05-21T12:49:29.857Z,23.9938
2023-05-21T12:50:30.540Z,24.0116
2023-05-21T12:51:32.981Z,24.2943
2023-05-21T12:52:34.796Z,24.2381
2023-05-21T12:53:36.555Z,25.0579
2023-05-21T12:54:39.688Z,24.9071
2023-05-21T12:58:44.769Z,24.5882
2023-05-21T12:59:47.124Z,24.3944
2023-05-21T13:00:49.499Z,24.2052
2023-05-21T13:01:52.143Z,25.0836
2023-05-21T13:02:54.878Z,25.1018
2023-05-21T13:03:57.638Z,25.4305
2023-05-21T13:04:57.229Z,25.2124
2023-05-21T13:06:00.045Z,24.6042
2023-05-21T13:07:04.849Z,24.6964
2023-05-21T13:08:04.836Z,25.2939
2023-05-21T13:09:06.556Z,25.3986
2023-05-21T13:10:08.324Z,25.0646
2023-05-21T13:11:10.964Z,25.1204
2023-05-21T13:12:12.835Z,24.8030
2023-05-21T13:13:14.612Z,24.8871
2023-05-21T13:14:16.453Z,25.2892
2023-05-21T13:15:18.879Z,25.4646
2023-05-21T13:16:21.648Z,25.2763
2023-05-21T13:24:35.091Z,23.7408
2023-05-21T13:26:36.661Z,24.6532
2023-05-21T13:27:39.177Z,24.5121
2023-05-21T13:28:42.673Z,24.6313
2023-05-21T13:29:42.516Z,24.1276
2023-05-21T13:30:45.019Z,24.3583
2023-05-21T13:31:47.533Z,24.3886
2023-05-21T13:32:49.472Z,24.8942
2023-05-21T13:33:51.454Z,24.3685
2023-05-21T13:35:55.851Z,25.7018
2023-05-21T13:36:58.452Z,24.9527
2023-05-21T13:38:01.054Z,24.6270
2023-05-21T13:39:03.449Z,25.2633
2023-05-21T13:40:05.273Z,26.0417
2023-05-21T13:41:07.688Z,26.3097
2023-05-21T13:42:10.278Z,25.8899
2023-05-21T13:43:12.866Z,25.9891
2023-05-21T13:44:15.374Z,25.8324
2023-05-21T13:45:17.177Z,25.1236
2023-05-21T13:46:19.048Z,25.1214
2023-05-21T13:47:21.374Z,24.9528
2023-05-21T13:48:23.875Z,24.7416
2023-05-21T13:49:26.373Z,24.5820
2023-05-21T13:51:38.806Z,24.4310
2023-05-21T13:52:30.463Z,24.0037
2023-05-21T13:53:32.942Z,24.3671
2023-05-21T13:54:33.721Z,24.6827
2023-05-21T13:55:33.530Z,24.2747
2023-05-21T13:56:35.277Z,24.3011
2023-05-21T13:57:37.959Z,24.2466
2023-05-21T13:58:39.790Z,23.7599
2023-05-21T14:00:44.006Z,23.8804
2023-05-21T14:01:44.535Z,24.0649
2023-05-21T14:02:44.314Z,24.4589
2023-05-21T14:03:46.880Z,24.1326
2023-05-21T14:04:49.559Z,24.0104
2023-05-21T14:05:51.534Z,24.2506
2023-05-21T14:06:53.348Z,24.1371
2023-05-21T14:07:55.935Z,24.4458
2023-05-21T14:10:59.491Z,24.8030
2023-05-21T14:12:01.731Z,25.1247
2023-05-21T14:13:15.370Z,25.3249
2023-05-21T14:14:04.434Z,26.4992
2023-05-21T14:15:06.975Z,25.9062
2023-05-21T14:16:08.810Z,25.5207
2023-05-21T14:18:11.668Z,26.7033
2023-05-21T14:19:15.100Z,26.2640
2023-05-21T14:28:28.786Z,26.0623
2023-05-21T14:29:31.265Z,25.3507
2023-05-21T14:30:33.615Z,25.5126
2023-05-21T14:31:36.108Z,25.5682
2023-05-21T14:33:39.562Z,25.4907
2023-05-21T14:34:41.352Z,25.7954
2023-05-21T14:35:44.404Z,25.8753
2023-05-21T14:39:48.437Z,25.6669
2023-05-21T14:40:51.093Z,25.9476
2023-05-21T14:41:53.751Z,25.8073
2023-05-21T14:42:56.089Z,25.7898
2023-05-21T14:43:58.497Z,26.2473
2023-05-21T14:45:16.816Z,26.6050
2023-05-21T14:47:05.956Z,26.1303
2023-05-21T14:48:08.593Z,25.4473
2023-05-21T14:49:11.532Z,26.0456
2023-05-21T14:55:21.532Z,23.6336
2023-05-21T14:56:23.981Z,23.6419
2023-05-21T14:57:26.456Z,22.9026
2023-05-21T14:59:28.742Z,23.1991
2023-05-21T15:00:32.028Z,23.1297
2023-05-21T15:08:45.557Z,22.9845
2023-05-21T15:12:53.609Z,22.7600
2023-05-21T15:15:57.189Z,23.5347
2023-05-21T15:16:59.679Z,23.9054
2023-05-21T15:18:02.364Z,23.7455
2023-05-21T15:20:04.612Z,25.3196
2023-05-21T15:21:07.082Z,24.9111
2023-05-21T15:22:09.547Z,25.0473
2023-05-21T15:23:17.290Z,26.1599
2023-05-21T15:24:14.171Z,26.7605
2023-05-21T15:25:18.316Z,26.7187
2023-05-21T15:26:17.981Z,26.3035
2023-05-21T15:27:20.941Z,26.4176
2023-05-21T15:29:22.515Z,27.2862
2023-05-21T15:30:25.038Z,27.5283
2023-05-21T15:31:27.131Z,26.6267
2023-05-21T15:32:29.152Z,27.2700
2023-05-21T15:33:31.677Z,27.3393
2023-05-21T15:34:33.358Z,28.9903
2023-05-21T15:35:35.349Z,28.4183
2023-05-21T15:36:37.378Z,27.2103
2023-05-21T15:37:39.231Z,27.6210
2023-05-21T15:38:41.564Z,28.6108
2023-05-21T15:39:44.137Z,27.8657
2023-05-21T15:42:48.530Z,27.8395
2023-05-21T15:43:50.989Z,27.9849
2023-05-21T15:44:52.861Z,27.9654
2023-05-21T15:46:56.651Z,27.6752
2023-05-21T15:47:58.472Z,27.2795
2023-05-21T15:49:01.601Z,27.4647
2023-05-21T15:51:02.280Z,28.2228
2023-05-21T15:52:04.408Z,28.6699
2023-05-21T15:53:06.277Z,29.3734
2023-05-21T15:54:19.872Z,29.5746
2023-05-21T15:55:11.161Z,29.5722
2023-05-21T15:56:12.950Z,28.5503
2023-05-21T15:57:14.800Z,27.4200
2023-05-21T15:58:39.853Z,27.6420
2023-05-21T16:00:21.612Z,28.5830
2023-05-21T16:01:23.679Z,28.1063
2023-05-21T16:02:25.601Z,28.0135
2023-05-21T16:03:27.478Z,27.1937
2023-05-21T16:04:29.834Z,28.0938
2023-05-21T16:05:31.609Z,27.7054
2023-05-21T16:06:33.438Z,28.0136
2023-05-21T16:07:37.967Z,29.1311
2023-05-21T16:08:37.999Z,28.7827
2023-05-21T16:09:39.776Z,28.5721
2023-05-21T16:10:41.643Z,28.2661
2023-05-21T16:11:44.041Z,27.5457
2023-05-21T16:12:46.084Z,28.0512
2023-05-21T16:13:48.598Z,27.8308
2023-05-21T16:14:51.048Z,27.3975
2023-05-21T16:15:52.859Z,27.4834
2023-05-21T16:16:55.449Z,27.2292
2023-05-21T16:17:58.075Z,25.8753
2023-05-21T16:19:00.517Z,25.6042
2023-05-21T16:20:03.181Z,26.1913
2023-05-21T16:21:05.093Z,26.6461
2023-05-21T16:22:07.864Z,27.1807
2023-05-21T16:23:08.274Z,27.1211
2023-05-21T16:24:10.079Z,26.6557
2023-05-21T16:25:11.891Z,26.2848
2023-05-21T16:26:13.968Z,25.7197
2023-05-21T16:27:16.971Z,25.7921
2023-05-21T16:29:18.209Z,24.5906
2023-05-21T16:30:20.635Z,24.4894
2023-05-21T16:31:23.346Z,24.5356
2023-05-21T16:32:25.177Z,24.5891
2023-05-21T16:33:27.038Z,24.5100
2023-05-21T16:35:31.188Z,24.8178
2023-05-21T16:36:32.991Z,25.0453
2023-05-21T16:37:35.491Z,24.5121
2023-05-21T16:38:38.237Z,25.3583
2023-05-21T16:39:40.033Z,24.6984
2023-05-21T16:40:41.850Z,25.0714
2023-05-21T16:41:43.627Z,24.5238
2023-05-21T16:42:46.093Z,24.7972
2023-05-21T16:43:48.753Z,25.1715